createdAt,value
2018-12-22T00:00:56.677Z,10.40
2018-12-22T00:03:01.094Z,10.30
2018-12-22T00:05:05.726Z,10.30
2018-12-22T00:07:10.075Z,10.40
2018-12-22T00:09:14.447Z,10.40
2018-12-22T00:11:18.799Z,10.40
2018-12-22T00:13:23.908Z,10.40
2018-12-22T00:15:28.316Z,10.50
2018-12-22T00:17:32.742Z,10.50
2018-12-22T00:19:37.183Z,10.50
2018-12-22T00:21:41.606Z,10.50
2018-12-22T00:23:45.993Z,10.50
2018-12-22T00:25:50.382Z,10.60
2018-12-22T00:27:54.878Z,10.60
2018-12-22T00:30:00.239Z,10.60
2018-12-22T00:32:04.607Z,10.70
2018-12-22T00:34:09.075Z,10.70
2018-12-22T00:36:13.467Z,10.70
2018-12-22T00:38:17.884Z,10.70
2018-12-22T00:40:22.246Z,10.80
2018-12-22T00:42:26.640Z,10.80
2018-12-22T00:44:31.001Z,10.80
2018-12-22T00:46:35.477Z,10.80
2018-12-22T00:48:39.895Z,10.80
2018-12-22T00:50:44.210Z,10.90
2018-12-22T00:52:48.558Z,10.90
2018-12-22T00:54:52.934Z,10.80
2018-12-22T00:56:57.269Z,10.90
2018-12-22T00:59:02.654Z,10.90
2018-12-22T01:01:07.076Z,10.90
2018-12-22T01:03:11.434Z,10.90
2018-12-22T01:05:15.861Z,10.90
2018-12-22T01:07:20.243Z,10.90
2018-12-22T01:09:24.670Z,10.90
2018-12-22T01:11:29.062Z,10.90
2018-12-22T01:13:33.460Z,10.90
2018-12-22T01:15:37.822Z,10.90
2018-12-22T01:17:42.225Z,10.90
2018-12-22T01:19:46.554Z,10.90
2018-12-22T01:21:50.958Z,11.00
2018-12-22T01:23:56.154Z,11.00
2018-12-22T01:26:00.566Z,11.00
2018-12-22T01:28:07.021Z,11.00
2018-12-22T01:30:11.413Z,11.00
2018-12-22T01:32:15.777Z,11.00
2018-12-22T01:34:20.229Z,11.00
2018-12-22T01:36:24.567Z,11.00
2018-12-22T01:38:28.931Z,11.00
2018-12-22T01:40:33.372Z,11.00
2018-12-22T01:42:37.726Z,11.00
2018-12-22T01:44:42.106Z,11.00
2018-12-22T01:46:46.513Z,11.00
2018-12-22T01:48:50.870Z,11.00
2018-12-22T01:50:55.224Z,11.00
2018-12-22T01:52:59.621Z,11.00
2018-12-22T01:55:04.230Z,11.00
2018-12-22T01:57:09.026Z,10.90
2018-12-22T01:59:13.473Z,11.00
2018-12-22T02:01:17.809Z,11.00
2018-12-22T02:03:22.181Z,11.00
2018-12-22T02:05:26.638Z,10.90
2018-12-22T02:07:30.989Z,10.90
2018-12-22T02:09:35.311Z,10.90
2018-12-22T02:11:39.718Z,10.90
2018-12-22T02:13:44.202Z,10.90
2018-12-22T02:15:48.593Z,10.90
2018-12-22T02:17:52.971Z,10.90
2018-12-22T02:19:57.438Z,10.90
2018-12-22T02:22:01.825Z,10.90
2018-12-22T02:24:06.169Z,10.80
2018-12-22T02:26:10.751Z,10.90
2018-12-22T02:28:15.137Z,10.80
2018-12-22T02:30:19.488Z,10.70
2018-12-22T02:32:23.935Z,10.80
2018-12-22T02:34:28.316Z,10.70
2018-12-22T02:36:32.700Z,10.80
2018-12-22T02:38:37.102Z,10.70
2018-12-22T02:40:41.594Z,10.70
2018-12-22T02:42:45.853Z,10.70
2018-12-22T02:44:50.242Z,10.60
2018-12-22T02:46:54.610Z,10.70
2018-12-22T02:48:58.977Z,10.60
2018-12-22T02:51:03.359Z,10.60
2018-12-22T02:53:07.732Z,10.60
2018-12-22T02:55:12.346Z,10.50
2018-12-22T02:57:16.747Z,10.50
2018-12-22T02:59:21.103Z,10.50
2018-12-22T03:01:25.439Z,10.50
2018-12-22T03:03:30.410Z,10.50
2018-12-22T03:05:34.926Z,10.50
2018-12-22T03:07:39.322Z,10.50
2018-12-22T03:09:43.846Z,10.50
2018-12-22T03:11:48.197Z,10.50
2018-12-22T03:13:52.550Z,10.50
2018-12-22T03:15:57.308Z,10.50
2018-12-22T03:18:01.710Z,10.50
2018-12-22T03:20:06.128Z,10.50
2018-12-22T03:22:10.541Z,10.50
2018-12-22T03:24:16.431Z,10.40
2018-12-22T03:26:20.810Z,10.40
2018-12-22T03:28:25.158Z,10.40
2018-12-22T03:30:29.680Z,10.40
2018-12-22T03:32:34.292Z,10.30
2018-12-22T03:34:38.559Z,10.30
2018-12-22T03:36:42.913Z,10.30
2018-12-22T03:38:47.294Z,10.20
2018-12-22T03:40:51.677Z,10.20
2018-12-22T03:42:56.042Z,10.10
2018-12-22T03:45:00.454Z,10.10
2018-12-22T03:47:04.824Z,10.10
2018-12-22T03:49:09.245Z,10.10
2018-12-22T03:51:13.628Z,10.10
2018-12-22T03:53:18.898Z,10.00
2018-12-22T03:55:23.298Z,10.00
2018-12-22T03:57:27.622Z,10.10
2018-12-22T03:59:32.441Z,10.10
2018-12-22T04:01:36.819Z,10.20
2018-12-22T04:03:41.194Z,10.20
2018-12-22T04:05:45.625Z,10.20
2018-12-22T04:07:49.964Z,10.20
2018-12-22T04:09:54.295Z,10.20
2018-12-22T04:11:58.688Z,10.20
2018-12-22T04:14:03.111Z,10.20
2018-12-22T04:16:07.463Z,10.10
2018-12-22T04:18:11.805Z,10.10
2018-12-22T04:20:16.563Z,10.10
2018-12-22T04:22:21.703Z,10.10
2018-12-22T04:24:26.096Z,10.10
2018-12-22T04:26:30.476Z,10.20
2018-12-22T04:28:34.859Z,10.20
2018-12-22T04:30:39.226Z,10.20
2018-12-22T04:32:43.570Z,10.20
2018-12-22T04:34:48.978Z,10.10
2018-12-22T04:36:53.361Z,10.00
2018-12-22T04:38:57.755Z,10.00
2018-12-22T04:41:02.100Z,10.00
2018-12-22T04:43:06.484Z,10.00
2018-12-22T04:45:10.820Z,9.90
2018-12-22T04:47:15.226Z,9.90
2018-12-22T04:49:21.323Z,9.90
2018-12-22T04:51:25.746Z,9.90
2018-12-22T04:53:30.124Z,10.00
2018-12-22T04:55:34.642Z,9.90
2018-12-22T04:57:39.051Z,9.90
2018-12-22T04:59:43.486Z,9.90
2018-12-22T05:01:48.533Z,9.90
2018-12-22T05:03:52.913Z,9.90
2018-12-22T05:05:57.284Z,9.90
2018-12-22T05:08:01.653Z,10.00
2018-12-22T05:10:06.367Z,10.00
2018-12-22T05:12:10.804Z,9.90
2018-12-22T05:14:15.202Z,10.00
2018-12-22T05:16:19.673Z,9.90
2018-12-22T05:18:25.302Z,9.90
2018-12-22T05:20:30.335Z,9.90
2018-12-22T05:22:35.150Z,10.00
2018-12-22T05:24:39.599Z,10.00
2018-12-22T05:26:43.968Z,10.00
2018-12-22T05:28:48.336Z,10.00
2018-12-22T05:30:52.718Z,10.00
2018-12-22T05:32:57.199Z,10.00
2018-12-22T05:35:01.482Z,10.00
2018-12-22T05:37:05.937Z,10.00
2018-12-22T05:39:10.329Z,10.00
2018-12-22T05:41:14.710Z,10.10
2018-12-22T05:43:19.119Z,10.00
2018-12-22T05:45:23.542Z,10.10
2018-12-22T05:47:28.531Z,10.10
2018-12-22T05:49:32.900Z,10.10
2018-12-22T05:51:37.326Z,10.10
2018-12-22T05:53:41.716Z,10.20
2018-12-22T05:55:46.071Z,10.10
2018-12-22T05:57:51.079Z,10.10
2018-12-22T06:00:00.361Z,10.20
2018-12-22T06:01:59.923Z,10.20
2018-12-22T06:04:04.294Z,10.20
2018-12-22T06:06:08.727Z,10.20
2018-12-22T06:08:13.125Z,10.20
2018-12-22T06:10:17.591Z,10.20
2018-12-22T06:12:22.034Z,10.30
2018-12-22T06:14:26.561Z,10.20
2018-12-22T06:16:31.951Z,10.20
2018-12-22T06:18:37.291Z,10.30
2018-12-22T06:20:41.708Z,10.20
2018-12-22T06:22:46.103Z,10.30
2018-12-22T06:24:50.446Z,10.20
2018-12-22T06:26:54.911Z,10.20
2018-12-22T06:28:59.272Z,10.20
2018-12-22T06:31:03.679Z,10.20
2018-12-22T06:33:08.251Z,10.20
2018-12-22T06:35:12.666Z,10.30
2018-12-22T06:37:17.076Z,10.30
2018-12-22T06:39:21.538Z,10.30
2018-12-22T06:41:26.011Z,10.30
2018-12-22T06:43:30.376Z,10.30
2018-12-22T06:45:35.799Z,10.30
2018-12-22T06:47:40.388Z,10.30
2018-12-22T06:49:44.805Z,10.30
2018-12-22T06:51:49.191Z,10.40
2018-12-22T06:53:53.609Z,10.40
2018-12-22T06:55:57.975Z,10.30
2018-12-22T06:58:02.455Z,10.40
2018-12-22T07:00:07.718Z,10.40
2018-12-22T07:02:12.290Z,10.40
2018-12-22T07:04:16.693Z,10.40
2018-12-22T07:06:21.074Z,10.40
2018-12-22T07:08:25.465Z,10.40
2018-12-22T07:10:29.882Z,10.40
2018-12-22T07:12:35.518Z,10.30
2018-12-22T07:14:39.916Z,10.30
2018-12-22T07:16:44.295Z,10.20
2018-12-22T07:18:48.676Z,10.20
2018-12-22T07:20:53.064Z,10.10
2018-12-22T07:22:57.421Z,9.90
2018-12-22T07:25:01.819Z,9.90
2018-12-22T07:27:06.193Z,9.90
2018-12-22T07:29:11.141Z,9.80
2018-12-22T07:31:15.567Z,9.80
2018-12-22T07:33:19.940Z,9.80
2018-12-22T07:35:24.338Z,9.80
2018-12-22T07:37:29.085Z,9.80
2018-12-22T07:39:34.309Z,9.80
2018-12-22T07:41:38.798Z,9.80
2018-12-22T07:43:43.212Z,9.80
2018-12-22T07:45:47.602Z,9.80
2018-12-22T07:47:52.043Z,9.80
2018-12-22T07:49:56.431Z,9.80
2018-12-22T07:52:00.847Z,9.80
2018-12-22T07:54:05.254Z,9.80
2018-12-22T07:56:09.738Z,9.80
2018-12-22T07:58:14.149Z,9.80
2018-12-22T08:00:18.501Z,9.80
2018-12-22T08:02:22.916Z,9.80
2018-12-22T08:04:27.267Z,9.90
2018-12-22T08:06:31.609Z,9.80
2018-12-22T08:08:36.760Z,9.90
2018-12-22T08:10:41.398Z,9.90
2018-12-22T08:12:45.750Z,9.90
2018-12-22T08:14:50.135Z,9.90
2018-12-22T08:16:54.495Z,9.90
2018-12-22T08:18:58.810Z,9.90
2018-12-22T08:21:03.230Z,9.90
2018-12-22T08:23:07.580Z,9.90
2018-12-22T08:25:12.091Z,10.00
2018-12-22T08:27:16.528Z,9.90
2018-12-22T08:29:20.941Z,9.90
2018-12-22T08:31:25.335Z,10.00
2018-12-22T08:33:29.734Z,10.00
2018-12-22T08:35:34.111Z,9.90
2018-12-22T08:37:39.270Z,10.00
2018-12-22T08:39:43.693Z,9.90
2018-12-22T08:44:38.455Z,9.90
2018-12-22T08:46:43.017Z,9.80
2018-12-22T08:48:47.426Z,9.80
2018-12-22T08:50:51.823Z,9.80
2018-12-22T08:52:56.267Z,9.70
2018-12-22T08:55:01.022Z,9.70
2018-12-22T08:57:05.421Z,9.60
2018-12-22T08:59:09.813Z,9.60
2018-12-22T09:01:14.240Z,9.50
2018-12-22T09:03:18.670Z,9.50
2018-12-22T09:05:23.054Z,9.50
2018-12-22T09:07:27.398Z,9.50
2018-12-22T09:09:31.793Z,9.50
2018-12-22T09:11:36.177Z,9.40
2018-12-22T09:13:40.694Z,9.40
2018-12-22T09:15:45.085Z,9.40
2018-12-22T09:17:49.499Z,9.40
2018-12-22T09:19:53.942Z,9.40
2018-12-22T09:21:58.302Z,9.40
2018-12-22T09:24:02.674Z,9.40
2018-12-22T09:26:08.512Z,9.40
2018-12-22T09:28:11.481Z,9.40
2018-12-22T09:30:15.979Z,9.30
2018-12-22T09:32:20.343Z,9.30
2018-12-22T09:34:24.697Z,9.30
2018-12-22T09:36:29.199Z,9.30
2018-12-22T09:38:33.552Z,9.30
2018-12-22T09:40:37.997Z,9.30
2018-12-22T09:42:43.602Z,9.20
2018-12-22T09:44:48.009Z,9.20
2018-12-22T09:46:52.401Z,9.30
2018-12-22T09:48:56.737Z,9.20
2018-12-22T09:51:01.481Z,9.30
2018-12-22T09:53:05.829Z,9.30
2018-12-22T09:55:14.748Z,9.30
2018-12-22T09:57:25.005Z,9.30
2018-12-22T09:59:29.550Z,9.30
2018-12-22T10:01:33.913Z,9.30
2018-12-22T10:03:38.297Z,9.30
2018-12-22T10:05:43.687Z,9.30
2018-12-22T10:07:48.055Z,9.20
2018-12-22T10:09:52.471Z,9.20
2018-12-22T10:11:56.902Z,9.30
2018-12-22T10:14:01.299Z,9.30
2018-12-22T10:16:05.711Z,9.30
2018-12-22T10:18:10.134Z,9.40
2018-12-22T10:20:14.471Z,9.40
2018-12-22T10:22:18.832Z,9.40
2018-12-22T10:24:23.189Z,9.40
2018-12-22T10:26:27.526Z,9.40
2018-12-22T10:28:31.921Z,9.50
2018-12-22T10:30:36.311Z,9.50
2018-12-22T10:32:40.697Z,9.50
2018-12-22T10:34:45.066Z,9.50
2018-12-22T10:36:49.406Z,9.50
2018-12-22T10:38:54.172Z,9.50
2018-12-22T10:40:58.490Z,9.50
2018-12-22T10:43:02.906Z,9.60
2018-12-22T10:45:10.820Z,9.50
2018-12-22T10:47:15.161Z,9.50
2018-12-22T10:49:19.680Z,9.60
2018-12-22T10:51:24.693Z,9.60
2018-12-22T10:53:29.336Z,9.60
2018-12-22T10:55:33.756Z,9.60
2018-12-22T10:57:38.428Z,9.60
2018-12-22T10:59:42.870Z,9.60
2018-12-22T11:01:47.269Z,9.70
2018-12-22T11:03:51.618Z,9.60
2018-12-22T11:05:56.046Z,9.70
2018-12-22T11:08:01.002Z,9.60
2018-12-22T11:10:07.007Z,9.70
2018-12-22T11:12:11.386Z,9.70
2018-12-22T11:14:15.842Z,9.70
2018-12-22T11:16:20.261Z,9.70
2018-12-22T11:18:24.684Z,9.70
2018-12-22T11:20:29.100Z,9.70
2018-12-22T11:22:33.516Z,9.80
2018-12-22T11:24:37.881Z,9.80
2018-12-22T11:26:42.282Z,9.80
2018-12-22T11:28:47.059Z,9.80
2018-12-22T11:30:51.647Z,9.80
2018-12-22T11:32:56.677Z,9.80
2018-12-22T11:35:01.070Z,9.90
2018-12-22T11:37:05.438Z,9.90
2018-12-22T11:39:09.948Z,9.90
2018-12-22T11:41:14.387Z,9.90
2018-12-22T11:43:18.762Z,9.90
2018-12-22T11:45:23.172Z,10.00
2018-12-22T11:47:39.558Z,9.90
2018-12-22T11:49:44.598Z,10.00
2018-12-22T11:51:48.957Z,9.90
2018-12-22T11:53:53.365Z,9.90
2018-12-22T11:55:59.940Z,9.90
2018-12-22T11:58:05.732Z,9.90
2018-12-22T12:00:11.443Z,9.90
2018-12-22T12:02:15.850Z,9.90
2018-12-22T16:56:00.479Z,9.20
2018-12-22T16:58:08.937Z,9.30
2018-12-22T17:00:18.321Z,9.20
2018-12-22T17:02:29.191Z,9.20
2018-12-22T17:04:33.798Z,9.10
2018-12-22T17:06:39.959Z,9.20
2018-12-22T17:08:44.480Z,9.10
2018-12-22T17:10:52.350Z,9.00
2018-12-22T17:12:56.956Z,9.10
2018-12-22T17:15:01.490Z,9.10
2018-12-22T17:17:06.117Z,9.10
2018-12-22T17:19:10.619Z,9.10
2018-12-22T17:21:21.355Z,9.10
2018-12-22T17:25:35.911Z,9.10
2018-12-22T17:27:40.732Z,9.10
2018-12-22T17:29:45.796Z,9.10
2018-12-22T17:31:51.591Z,9.10
2018-12-22T17:33:58.494Z,9.10
2018-12-22T17:36:03.544Z,9.10
2018-12-22T17:38:08.564Z,9.10
2018-12-22T17:40:14.998Z,9.20
2018-12-22T17:42:20.785Z,9.10
2018-12-22T17:44:24.645Z,9.10
2018-12-22T17:46:29.608Z,9.10
2018-12-22T17:48:34.393Z,9.10
2018-12-22T17:50:39.073Z,9.10
2018-12-22T17:52:44.174Z,9.10
2018-12-22T17:54:49.205Z,9.10
2018-12-22T17:56:54.174Z,9.10
2018-12-22T17:58:58.935Z,9.20
2018-12-22T18:01:03.757Z,9.20
2018-12-22T18:03:13.150Z,9.20
2018-12-22T18:05:18.030Z,9.10
2018-12-22T18:07:22.840Z,9.20
2018-12-22T18:09:27.483Z,9.20
2018-12-22T18:11:32.362Z,9.20
2018-12-22T18:13:37.185Z,9.20
2018-12-22T18:15:42.125Z,9.20
2018-12-22T18:17:47.820Z,9.30
2018-12-22T18:19:52.738Z,9.20
2018-12-22T18:21:57.568Z,9.30
2018-12-22T18:24:02.352Z,9.20
2018-12-22T18:26:07.388Z,9.20
2018-12-22T18:28:13.114Z,9.20
2018-12-22T18:30:17.995Z,9.20
2018-12-22T18:32:22.824Z,9.20
2018-12-22T18:34:27.664Z,9.20
2018-12-22T18:36:32.686Z,9.20
2018-12-22T18:38:37.474Z,9.20
2018-12-22T18:40:42.282Z,9.20
2018-12-22T18:42:47.423Z,9.30
2018-12-22T18:44:52.319Z,9.30
2018-12-22T18:46:59.036Z,9.20
2018-12-22T18:49:03.732Z,9.30
2018-12-22T18:51:08.592Z,9.30
2018-12-22T18:53:13.379Z,9.30
2018-12-22T18:55:18.356Z,9.20
2018-12-22T18:57:23.436Z,9.20
2018-12-22T18:59:28.073Z,9.20
2018-12-22T19:01:32.893Z,9.20
2018-12-22T19:03:44.675Z,9.20
2018-12-22T19:05:42.905Z,9.10
2018-12-22T19:07:47.988Z,9.20
2018-12-22T19:09:53.144Z,9.20
2018-12-22T19:11:58.038Z,9.20
2018-12-22T19:14:03.225Z,9.20
2018-12-22T19:16:08.090Z,9.20
2018-12-22T19:18:12.974Z,9.20
2018-12-22T19:20:21.598Z,9.20
2018-12-22T19:22:27.574Z,9.10
2018-12-22T19:24:32.468Z,9.10
2018-12-22T19:26:37.274Z,9.10
2018-12-22T19:28:42.950Z,9.10
2018-12-22T19:30:48.389Z,9.10
2018-12-22T19:32:54.140Z,9.10
2018-12-22T19:34:58.992Z,9.10
2018-12-22T19:37:03.746Z,9.10
2018-12-22T19:39:09.564Z,9.10
2018-12-22T19:41:15.212Z,9.20
2018-12-22T19:43:20.173Z,9.20
2018-12-22T19:45:25.073Z,9.20
2018-12-22T19:47:29.916Z,9.20
2018-12-22T19:49:34.686Z,9.20
2018-12-22T19:51:40.486Z,9.20
2018-12-22T19:53:45.235Z,9.10
2018-12-22T19:55:50.248Z,9.00
2018-12-22T19:57:56.529Z,9.00
2018-12-22T20:00:01.652Z,9.00
2018-12-22T20:02:07.593Z,9.00
2018-12-22T20:04:13.246Z,8.90
2018-12-22T20:06:18.888Z,8.90
2018-12-22T20:08:24.011Z,8.90
2018-12-22T20:10:28.691Z,8.90
2018-12-22T20:12:33.658Z,8.90
2018-12-22T20:14:38.362Z,8.90
2018-12-22T20:16:45.080Z,9.00
2018-12-22T20:18:50.728Z,9.00
2018-12-22T20:20:55.627Z,8.90
2018-12-22T20:23:00.562Z,9.00
2018-12-22T20:25:05.747Z,8.90
2018-12-22T20:27:11.233Z,9.00
2018-12-22T20:29:16.188Z,9.10
2018-12-22T20:31:21.242Z,9.10
2018-12-22T20:33:26.401Z,9.10
2018-12-22T20:35:31.773Z,9.10
2018-12-22T20:37:37.384Z,9.10
2018-12-22T20:39:42.167Z,9.10
2018-12-22T20:41:46.988Z,9.10
2018-12-22T20:43:51.911Z,9.10
2018-12-22T20:46:01.103Z,9.10
2018-12-22T20:48:05.870Z,9.20
2018-12-22T20:50:10.696Z,9.20
2018-12-22T20:52:16.182Z,9.20
2018-12-22T20:54:21.642Z,9.20
2018-12-22T20:56:26.481Z,9.20
2018-12-22T20:58:31.477Z,9.30
2018-12-22T21:00:36.270Z,9.30
2018-12-22T21:02:41.033Z,9.30
2018-12-22T21:04:45.738Z,9.20
2018-12-22T21:06:50.411Z,9.20
2018-12-22T21:08:55.154Z,9.20
2018-12-22T21:11:00.001Z,9.20
2018-12-22T21:13:04.801Z,9.20
2018-12-22T21:15:09.628Z,9.30
2018-12-22T21:17:14.347Z,9.30
2018-12-22T21:19:19.096Z,9.30
2018-12-22T21:21:23.845Z,9.30
2018-12-22T21:23:28.590Z,9.40
2018-12-22T21:25:33.492Z,9.40
2018-12-22T21:27:38.282Z,9.30
2018-12-22T21:29:44.078Z,9.30
2018-12-22T21:31:49.299Z,9.30
2018-12-22T21:33:54.056Z,9.30
2018-12-22T21:35:58.927Z,9.30
2018-12-22T21:38:03.787Z,9.20
2018-12-22T21:40:09.219Z,9.30
2018-12-22T21:42:13.939Z,9.30
2018-12-22T21:44:18.778Z,9.30
2018-12-22T21:46:23.652Z,9.30
2018-12-22T21:48:28.247Z,9.30
2018-12-22T21:50:32.824Z,9.30
2018-12-22T21:52:37.345Z,9.40
2018-12-22T21:54:41.961Z,9.30
2018-12-22T21:56:46.688Z,9.30
2018-12-22T21:58:51.323Z,9.30
2018-12-22T22:00:55.847Z,9.30
2018-12-22T22:03:00.383Z,9.20
2018-12-22T22:05:05.189Z,9.20
2018-12-22T22:07:09.724Z,9.30
2018-12-22T22:09:14.258Z,9.30
2018-12-22T22:11:19.432Z,9.30
2018-12-22T22:13:23.967Z,9.30
2018-12-22T22:15:28.641Z,9.20
2018-12-22T22:17:33.231Z,9.20
2018-12-22T22:19:37.836Z,9.20
2018-12-22T22:21:42.371Z,9.20
2018-12-22T22:23:46.897Z,9.20
2018-12-22T22:25:51.441Z,9.20
2018-12-22T22:27:55.927Z,9.20
2018-12-22T22:30:00.421Z,9.10
2018-12-22T22:32:05.040Z,9.20
2018-12-22T22:34:09.810Z,9.20
2018-12-22T22:36:14.327Z,9.20
2018-12-22T22:38:18.859Z,9.10
2018-12-22T22:40:23.432Z,9.10
2018-12-22T22:42:28.068Z,9.10
2018-12-22T22:44:32.587Z,9.10
2018-12-22T22:46:37.216Z,9.10
2018-12-22T22:48:41.815Z,9.10
2018-12-22T22:50:46.533Z,9.20
2018-12-22T22:52:51.279Z,9.10
2018-12-22T22:54:55.864Z,9.10
2018-12-22T22:57:00.386Z,9.10
2018-12-22T22:59:05.067Z,9.20
2018-12-22T23:01:09.610Z,9.20
2018-12-22T23:03:14.227Z,9.20
2018-12-22T23:05:18.823Z,9.10
2018-12-22T23:07:23.509Z,9.20
2018-12-22T23:09:28.067Z,9.10
2018-12-22T23:11:33.219Z,9.20
2018-12-22T23:13:37.759Z,9.10
2018-12-22T23:15:42.395Z,9.10
2018-12-22T23:17:46.883Z,9.10
2018-12-22T23:19:51.558Z,9.10
2018-12-22T23:21:56.055Z,9.10
2018-12-22T23:24:00.607Z,9.00
2018-12-22T23:26:05.156Z,9.10
2018-12-22T23:28:09.666Z,9.10
2018-12-22T23:30:19.038Z,9.10
2018-12-22T23:32:36.390Z,9.10
2018-12-22T23:34:46.349Z,9.00
2018-12-22T23:36:55.953Z,9.00
2018-12-22T23:39:00.740Z,9.00
2018-12-22T23:41:05.257Z,9.10
2018-12-22T23:43:09.912Z,9.00
2018-12-22T23:45:14.502Z,9.10
2018-12-22T23:47:19.059Z,9.00
2018-12-22T23:49:23.591Z,9.00
2018-12-22T23:51:28.177Z,9.00
2018-12-22T23:53:32.716Z,9.10
2018-12-22T23:55:37.272Z,9.10
2018-12-22T23:57:41.794Z,9.00
2018-12-22T23:59:46.336Z,9.00
